createdAt,value
2023-05-19T00:08:40.316Z,17.25
2023-05-19T00:11:17.603Z,17.26
2023-05-19T00:14:04.953Z,17.24
2023-05-19T00:16:37.407Z,17.21
2023-05-19T00:19:13.402Z,17.21
2023-05-19T00:21:50.114Z,17.20
2023-05-19T00:24:25.450Z,17.19
2023-05-19T00:27:02.750Z,17.18
2023-05-19T00:29:42.549Z,17.16
2023-05-19T00:32:13.838Z,17.14
2023-05-19T00:34:45.846Z,17.13
2023-05-19T00:40:11.136Z,17.11
2023-05-19T00:42:48.400Z,17.10
2023-05-19T00:48:04.791Z,17.09
2023-05-19T00:50:40.401Z,17.05
2023-05-19T00:55:57.577Z,17.04
2023-05-19T00:58:29.510Z,17.04
2023-05-19T01:01:10.009Z,17.01
2023-05-19T01:03:46.578Z,16.98
2023-05-19T01:06:22.233Z,17.01
2023-05-19T01:09:09.279Z,16.97
2023-05-19T01:11:41.276Z,16.98
2023-05-19T01:14:22.528Z,16.97
2023-05-19T01:17:16.078Z,16.95
2023-05-19T01:19:57.839Z,16.96
2023-05-19T01:22:56.874Z,16.94
2023-05-19T01:26:06.040Z,16.92
2023-05-19T01:29:05.061Z,16.90
2023-05-19T01:31:40.406Z,16.89
2023-05-19T01:34:13.539Z,16.86
2023-05-19T01:36:48.549Z,16.86
2023-05-19T01:39:32.401Z,16.84
2023-05-19T01:42:05.146Z,16.86
2023-05-19T01:44:35.899Z,16.84
2023-05-19T01:49:58.511Z,16.83
2023-05-19T01:52:31.303Z,16.83
2023-05-19T01:54:59.929Z,16.83
2023-05-19T01:57:43.389Z,16.81
2023-05-19T02:00:21.435Z,16.81
2023-05-19T02:06:33.552Z,16.78
2023-05-19T02:09:15.702Z,16.76
2023-05-19T02:11:56.683Z,16.77
2023-05-19T02:14:48.892Z,16.73
2023-05-19T02:17:26.886Z,16.71
2023-05-19T02:20:07.521Z,16.73
2023-05-19T02:22:38.246Z,16.72
2023-05-19T02:25:09.399Z,16.72
2023-05-19T02:27:42.835Z,16.71
2023-05-19T02:30:15.444Z,16.69
2023-05-19T02:32:46.953Z,16.69
2023-05-19T02:35:22.000Z,16.67
2023-05-19T02:38:00.141Z,16.63
2023-05-19T02:40:35.885Z,16.64
2023-05-19T02:43:13.588Z,16.61
2023-05-19T02:45:44.612Z,16.62
2023-05-19T02:48:15.899Z,16.58
2023-05-19T02:50:55.046Z,16.58
2023-05-19T02:53:40.921Z,16.54
2023-05-19T02:56:14.101Z,16.56
2023-05-19T02:58:45.085Z,16.55
2023-05-19T03:01:19.693Z,16.55
2023-05-19T03:04:03.744Z,16.53
2023-05-19T03:06:36.478Z,16.50
2023-05-19T03:09:07.797Z,16.50
2023-05-19T03:11:43.159Z,16.50
2023-05-19T03:17:12.138Z,16.47
2023-05-19T03:19:46.089Z,16.45
2023-05-19T03:22:14.818Z,16.45
2023-05-19T03:24:51.829Z,16.45
2023-05-19T03:27:22.619Z,16.44
2023-05-19T03:30:09.825Z,16.40
2023-05-19T03:32:45.100Z,16.37
2023-05-19T03:35:14.023Z,16.36
2023-05-19T03:37:49.098Z,16.39
2023-05-19T03:40:27.136Z,16.38
2023-05-19T03:43:06.713Z,16.37
2023-05-19T03:45:55.272Z,16.37
2023-05-19T03:48:27.433Z,16.37
2023-05-19T03:51:04.226Z,16.36
2023-05-19T03:53:34.172Z,16.38
2023-05-19T03:56:23.701Z,16.36
2023-05-19T03:58:58.096Z,16.38
2023-05-19T04:01:33.288Z,16.36
2023-05-19T04:04:18.277Z,16.38
2023-05-19T04:06:51.014Z,16.38
2023-05-19T04:09:30.846Z,16.38
2023-05-19T04:15:06.999Z,16.42
2023-05-19T04:17:35.831Z,16.45
2023-05-19T04:20:18.699Z,16.43
2023-05-19T04:22:53.266Z,16.46
2023-05-19T04:25:36.801Z,16.47
2023-05-19T04:28:25.062Z,16.48
2023-05-19T04:31:01.375Z,16.49
2023-05-19T04:33:34.020Z,16.50
2023-05-19T04:36:08.730Z,16.54
2023-05-19T04:44:21.167Z,16.60
2023-05-19T04:46:58.178Z,16.59
2023-05-19T04:49:47.011Z,16.62
2023-05-19T04:55:18.837Z,16.56
2023-05-19T04:57:49.433Z,16.57
2023-05-19T05:00:37.507Z,16.56
2023-05-19T05:03:11.750Z,16.55
2023-05-19T05:05:46.226Z,16.51
2023-05-19T05:08:23.276Z,16.52
2023-05-19T05:11:02.535Z,16.54
2023-05-19T05:13:32.968Z,16.57
2023-05-19T05:16:20.501Z,16.58
2023-05-19T05:18:53.017Z,16.61
2023-05-19T05:21:25.190Z,16.64
2023-05-19T05:24:14.413Z,16.64
2023-05-19T05:32:37.551Z,16.61
2023-05-19T05:35:15.350Z,16.68
2023-05-19T05:37:44.807Z,16.70
2023-05-19T05:43:13.918Z,16.73
2023-05-19T05:45:48.827Z,16.77
2023-05-19T05:51:23.807Z,16.77
2023-05-19T05:53:53.827Z,16.80
2023-05-19T05:56:22.484Z,16.84
2023-05-19T05:58:50.510Z,16.88
2023-05-19T06:01:18.158Z,16.92
2023-05-19T06:03:45.999Z,16.97
2023-05-19T06:06:14.489Z,16.96
2023-05-19T06:08:43.449Z,16.94
2023-05-19T06:11:11.079Z,16.93
2023-05-19T06:13:41.204Z,16.91
2023-05-19T06:16:09.036Z,16.90
2023-05-19T06:18:36.792Z,16.90
2023-05-19T06:21:04.633Z,16.92
2023-05-19T06:23:33.683Z,16.95
2023-05-19T06:26:02.633Z,16.95
2023-05-19T06:28:30.292Z,16.99
2023-05-19T06:30:58.463Z,17.03
2023-05-19T06:33:28.863Z,17.04
2023-05-19T06:35:56.831Z,17.02
2023-05-19T06:38:24.481Z,17.01
2023-05-19T06:40:52.077Z,17.03
2023-05-19T06:43:21.058Z,17.13
2023-05-19T06:45:48.630Z,17.28
2023-05-19T06:48:16.233Z,17.32
2023-05-19T06:50:43.982Z,17.32
2023-05-19T06:53:11.569Z,17.31
2023-05-19T06:55:47.233Z,17.32
2023-05-19T06:58:26.855Z,17.33
2023-05-19T07:00:54.531Z,17.33
2023-05-19T07:03:22.269Z,17.33
2023-05-19T07:05:49.972Z,17.36
2023-05-19T07:08:17.578Z,17.38
2023-05-19T07:10:45.198Z,17.39
2023-05-19T07:13:12.770Z,17.39
2023-05-19T07:15:41.701Z,17.42
2023-05-19T07:18:09.346Z,17.49
2023-05-19T07:20:36.981Z,17.57
2023-05-19T07:23:05.204Z,17.66
2023-05-19T07:25:33.294Z,17.67
2023-05-19T07:28:00.885Z,17.62
2023-05-19T07:30:29.561Z,17.55
2023-05-19T07:32:58.507Z,17.65
2023-05-19T07:35:27.040Z,17.66
2023-05-19T07:37:54.620Z,17.52
2023-05-19T07:40:22.232Z,17.56
2023-05-19T07:42:50.557Z,17.55
2023-05-19T07:45:18.256Z,17.47
2023-05-19T07:47:45.912Z,17.55
2023-05-19T07:50:14.918Z,17.63
2023-05-19T07:52:42.545Z,17.65
2023-05-19T07:55:10.207Z,17.61
2023-05-19T07:57:37.807Z,17.59
2023-05-19T08:00:11.458Z,17.59
2023-05-19T08:02:39.277Z,17.61
2023-05-19T08:05:09.149Z,17.60
2023-05-19T08:07:38.209Z,17.60
2023-05-19T08:10:06.238Z,17.67
2023-05-19T08:12:33.847Z,17.66
2023-05-19T08:15:01.955Z,17.63
2023-05-19T08:17:29.671Z,17.61
2023-05-19T08:19:57.273Z,17.57
2023-05-19T08:22:24.865Z,17.58
2023-05-19T08:24:53.928Z,17.68
2023-05-19T08:27:21.492Z,17.78
2023-05-19T08:29:49.091Z,17.77
2023-05-19T08:32:17.333Z,17.77
2023-05-19T08:34:44.923Z,17.75
2023-05-19T08:37:13.103Z,17.75
2023-05-19T08:39:40.850Z,17.75
2023-05-19T08:42:10.046Z,17.73
2023-05-19T08:44:39.870Z,17.72
2023-05-19T08:47:13.833Z,17.84
2023-05-19T08:49:45.934Z,17.87
2023-05-19T08:52:23.470Z,17.88
2023-05-19T08:54:54.357Z,17.90
2023-05-19T08:57:25.930Z,17.83
2023-05-19T08:59:55.397Z,17.83
2023-05-19T09:02:23.915Z,17.91
2023-05-19T09:04:51.819Z,17.98
2023-05-19T09:07:19.760Z,18.03
2023-05-19T09:09:47.694Z,18.02
2023-05-19T09:12:15.485Z,18.03
2023-05-19T09:14:45.107Z,18.08
2023-05-19T09:17:12.848Z,18.19
2023-05-19T09:19:44.818Z,18.30
2023-05-19T09:22:12.578Z,18.33
2023-05-19T09:24:40.706Z,18.36
2023-05-19T09:27:08.424Z,18.47
2023-05-19T09:29:36.028Z,18.54
2023-05-19T09:32:06.007Z,18.49
2023-05-19T09:34:33.705Z,18.42
2023-05-19T09:37:01.280Z,18.40
2023-05-19T09:39:28.926Z,18.36
2023-05-19T09:41:58.488Z,18.31
2023-05-19T09:44:29.226Z,18.31
2023-05-19T09:47:11.798Z,18.28
2023-05-19T09:49:50.205Z,18.36
2023-05-19T09:52:18.183Z,18.42
2023-05-19T09:54:46.222Z,18.46
2023-05-19T09:57:14.276Z,18.48
2023-05-19T09:59:42.932Z,18.54
2023-05-19T10:02:17.649Z,18.60
2023-05-19T10:04:47.266Z,18.66
2023-05-19T10:07:17.509Z,18.72
2023-05-19T10:09:46.918Z,18.81
2023-05-19T10:12:14.652Z,18.87
2023-05-19T10:14:42.484Z,18.89
2023-05-19T10:17:13.148Z,18.91
2023-05-19T10:19:42.093Z,18.90
2023-05-19T10:22:09.672Z,18.85
2023-05-19T10:24:37.286Z,18.83
2023-05-19T10:27:09.666Z,18.83
2023-05-19T10:29:40.981Z,18.88
2023-05-19T10:32:11.342Z,18.94
2023-05-19T10:35:11.483Z,18.94
2023-05-19T10:37:46.490Z,18.94
2023-05-19T10:40:23.063Z,18.93
2023-05-19T10:43:07.265Z,18.93
2023-05-19T10:45:41.526Z,18.93
2023-05-19T10:48:12.181Z,18.95
2023-05-19T10:50:41.195Z,18.95
2023-05-19T10:53:17.989Z,18.95
2023-05-19T10:55:48.038Z,18.94
2023-05-19T10:58:15.805Z,18.95
2023-05-19T11:00:43.498Z,18.96
2023-05-19T11:03:15.372Z,18.94
2023-05-19T11:05:45.635Z,18.95
2023-05-19T11:08:13.893Z,18.92
2023-05-19T11:10:44.789Z,18.93
2023-05-19T11:13:22.705Z,18.98
2023-05-19T11:15:50.864Z,18.98
2023-05-19T11:18:20.510Z,18.96
2023-05-19T11:20:58.545Z,18.94
2023-05-19T11:23:26.808Z,18.96
2023-05-19T11:25:54.710Z,19.00
2023-05-19T11:28:25.917Z,19.04
2023-05-19T11:30:57.758Z,19.10
2023-05-19T11:33:27.797Z,19.18
2023-05-19T11:35:58.944Z,19.21
2023-05-19T11:38:28.076Z,19.22
2023-05-19T11:40:56.401Z,19.29
2023-05-19T11:43:25.159Z,19.37
2023-05-19T11:45:54.173Z,19.37
2023-05-19T11:48:22.443Z,19.43
2023-05-19T11:50:50.785Z,19.54
2023-05-19T11:53:20.867Z,19.57
2023-05-19T11:55:49.811Z,19.61
2023-05-19T11:58:17.928Z,19.67
2023-05-19T12:00:47.757Z,19.67
2023-05-19T12:03:17.280Z,19.65
2023-05-19T12:05:47.571Z,19.66
2023-05-19T12:08:17.419Z,19.62
2023-05-19T12:10:50.391Z,19.73
2023-05-19T12:13:18.132Z,19.73
2023-05-19T12:15:45.736Z,19.74
2023-05-19T12:18:13.444Z,19.75
2023-05-19T12:20:41.414Z,19.74
2023-05-19T12:23:09.694Z,19.71
2023-05-19T12:25:38.243Z,19.67
2023-05-19T12:28:08.091Z,19.69
2023-05-19T12:30:35.993Z,19.79
2023-05-19T12:33:04.406Z,19.77
2023-05-19T12:35:33.474Z,19.80
2023-05-19T12:38:04.524Z,19.86
2023-05-19T12:40:32.757Z,19.94
2023-05-19T12:43:00.563Z,20.04
2023-05-19T12:45:29.648Z,20.16
2023-05-19T12:47:57.652Z,20.20
2023-05-19T12:50:31.530Z,20.24
2023-05-19T12:53:00.099Z,20.27
2023-05-19T12:55:27.876Z,20.31
2023-05-19T12:57:57.816Z,20.30
2023-05-19T13:00:28.960Z,20.29
2023-05-19T13:03:00.649Z,20.31
2023-05-19T13:05:29.165Z,20.30
2023-05-19T13:07:58.305Z,20.32
2023-05-19T13:10:27.877Z,20.33
2023-05-19T13:12:56.054Z,20.36
2023-05-19T13:15:26.052Z,20.38
2023-05-19T13:17:54.800Z,20.41
2023-05-19T13:20:26.268Z,20.45
2023-05-19T13:22:55.323Z,20.48
2023-05-19T13:25:22.909Z,20.50
2023-05-19T13:27:51.346Z,20.50
2023-05-19T13:30:20.856Z,20.48
2023-05-19T13:32:48.620Z,20.44
2023-05-19T13:35:17.327Z,20.47
2023-05-19T13:37:46.362Z,20.45
2023-05-19T13:40:15.598Z,20.42
2023-05-19T13:42:43.170Z,20.44
2023-05-19T13:45:11.217Z,20.47
2023-05-19T13:47:38.931Z,20.47
2023-05-19T13:50:07.912Z,20.51
2023-05-19T13:52:35.568Z,20.53
2023-05-19T13:55:04.992Z,20.52
2023-05-19T13:57:33.040Z,20.47
2023-05-19T14:00:03.316Z,20.41
2023-05-19T14:02:31.514Z,20.41
2023-05-19T14:04:59.471Z,20.42
2023-05-19T14:07:27.107Z,20.44
2023-05-19T14:09:55.241Z,20.40
2023-05-19T14:12:30.968Z,20.36
2023-05-19T14:15:04.960Z,20.31
2023-05-19T14:17:32.533Z,20.28
2023-05-19T14:20:01.105Z,20.27
2023-05-19T14:22:28.807Z,20.15
2023-05-19T14:24:56.613Z,20.08
2023-05-19T14:27:25.533Z,20.03
2023-05-19T14:29:53.081Z,19.95
2023-05-19T14:32:21.247Z,19.91
2023-05-19T14:34:52.645Z,19.78
2023-05-19T14:37:20.314Z,19.62
2023-05-19T14:39:47.987Z,19.51
2023-05-19T14:42:15.589Z,19.37
2023-05-19T14:44:44.506Z,19.28
2023-05-19T14:47:12.520Z,19.19
2023-05-19T14:49:40.290Z,19.15
2023-05-19T14:52:08.465Z,19.12
2023-05-19T14:54:36.069Z,19.13
2023-05-19T14:57:04.438Z,19.17
2023-05-19T14:59:32.043Z,19.16
2023-05-19T15:02:00.947Z,19.17
2023-05-19T15:04:28.653Z,19.25
2023-05-19T15:07:09.862Z,19.31
2023-05-19T15:09:38.534Z,19.37
2023-05-19T15:12:06.592Z,19.43
2023-05-19T15:14:34.309Z,19.47
2023-05-19T15:17:03.305Z,19.50
2023-05-19T15:19:31.123Z,19.49
2023-05-19T15:21:58.769Z,19.45
2023-05-19T15:24:26.682Z,19.38
2023-05-19T15:26:55.281Z,19.32
2023-05-19T15:29:22.886Z,19.25
2023-05-19T15:31:51.173Z,19.21
2023-05-19T15:34:20.184Z,19.24
2023-05-19T15:36:48.137Z,19.26
2023-05-19T15:39:16.548Z,19.26
2023-05-19T15:41:44.189Z,19.25
2023-05-19T15:44:11.964Z,19.23
2023-05-19T15:46:39.696Z,19.22
2023-05-19T15:49:07.291Z,19.21
2023-05-19T15:51:36.463Z,19.22
2023-05-19T15:54:04.167Z,19.20
2023-05-19T15:56:31.838Z,19.19
2023-05-19T15:58:59.453Z,19.19
2023-05-19T16:01:27.299Z,19.19
2023-05-19T16:03:54.944Z,19.19
2023-05-19T16:06:22.702Z,19.18
2023-05-19T16:08:51.603Z,19.17
2023-05-19T16:11:20.587Z,19.15
2023-05-19T16:13:48.152Z,19.14
2023-05-19T16:16:15.829Z,19.11
2023-05-19T16:18:44.121Z,19.09
2023-05-19T16:21:11.822Z,19.08
2023-05-19T16:23:39.445Z,19.07
2023-05-19T16:26:08.385Z,19.06
2023-05-19T16:28:35.968Z,19.03
2023-05-19T16:31:03.535Z,19.00
2023-05-19T16:33:31.077Z,18.98
2023-05-19T16:35:59.752Z,18.96
2023-05-19T16:38:27.874Z,18.97
2023-05-19T16:40:55.463Z,18.95
2023-05-19T16:43:24.495Z,18.96
2023-05-19T16:45:52.881Z,18.95
2023-05-19T16:48:20.579Z,18.93
2023-05-19T16:50:48.959Z,18.90
2023-05-19T16:53:16.545Z,18.91
2023-05-19T16:55:44.093Z,18.90
2023-05-19T16:58:11.852Z,18.89
2023-05-19T17:00:40.804Z,18.87
2023-05-19T17:03:08.467Z,18.86
2023-05-19T17:05:38.140Z,18.85
2023-05-19T17:08:06.188Z,18.84
2023-05-19T17:10:34.090Z,18.83
2023-05-19T17:13:02.022Z,18.80
2023-05-19T17:15:29.593Z,18.78
2023-05-19T17:17:58.521Z,18.76
2023-05-19T17:20:26.134Z,18.75
2023-05-19T17:22:53.684Z,18.74
2023-05-19T17:25:21.344Z,18.72
2023-05-19T17:27:48.892Z,18.70
2023-05-19T17:30:17.395Z,18.66
2023-05-19T17:32:45.076Z,18.63
2023-05-19T17:35:14.035Z,18.63
2023-05-19T17:37:41.732Z,18.62
2023-05-19T17:40:10.498Z,18.60
2023-05-19T17:42:38.086Z,18.57
2023-05-19T17:45:07.473Z,18.56
2023-05-19T17:47:35.098Z,18.54
2023-05-19T17:50:02.745Z,18.53
2023-05-19T17:52:32.828Z,18.52
2023-05-19T17:55:00.883Z,18.52
2023-05-19T17:57:32.177Z,18.49
2023-05-19T18:00:00.503Z,18.46
2023-05-19T18:02:28.725Z,18.45
2023-05-19T18:04:56.995Z,18.44
2023-05-19T18:07:26.218Z,18.42
2023-05-19T18:09:56.965Z,18.38
2023-05-19T18:12:24.534Z,18.38
2023-05-19T18:14:52.155Z,18.36
2023-05-19T18:17:19.736Z,18.34
2023-05-19T18:19:47.612Z,18.35
2023-05-19T18:22:15.268Z,18.31
2023-05-19T18:24:42.821Z,18.30
2023-05-19T18:27:11.738Z,18.29
2023-05-19T18:29:39.518Z,18.28
2023-05-19T18:32:07.848Z,18.28
2023-05-19T18:34:35.559Z,18.24
2023-05-19T18:37:03.188Z,18.24
2023-05-19T18:39:30.703Z,18.22
2023-05-19T18:41:58.367Z,18.21
2023-05-19T18:44:27.275Z,18.21
2023-05-19T18:46:54.845Z,18.18
2023-05-19T18:49:24.752Z,18.17
2023-05-19T18:51:52.469Z,18.15
2023-05-19T18:54:21.561Z,18.15
2023-05-19T18:56:49.220Z,18.14
2023-05-19T18:59:16.810Z,18.13
2023-05-19T19:01:45.999Z,18.11
2023-05-19T19:04:14.648Z,18.08
2023-05-19T19:06:43.821Z,18.05
2023-05-19T19:09:11.571Z,18.06
2023-05-19T19:11:39.253Z,18.06
2023-05-19T19:14:06.937Z,18.04
2023-05-19T19:16:34.914Z,18.02
2023-05-19T19:19:04.037Z,18.01
2023-05-19T19:21:31.690Z,18.01
2023-05-19T19:23:59.334Z,17.99
2023-05-19T19:26:28.891Z,18.00
2023-05-19T19:28:56.657Z,17.99
2023-05-19T19:31:25.742Z,17.97
2023-05-19T19:33:58.657Z,17.96
2023-05-19T19:36:27.906Z,17.97
2023-05-19T19:38:55.664Z,17.94
2023-05-19T19:41:23.223Z,17.94
2023-05-19T19:43:50.910Z,17.93
2023-05-19T19:46:18.646Z,17.92
2023-05-19T19:48:46.246Z,17.90
2023-05-19T19:51:13.925Z,17.88
2023-05-19T19:53:42.814Z,17.88
2023-05-19T19:56:10.514Z,17.88
2023-05-19T19:58:38.069Z,17.87
2023-05-19T20:01:06.231Z,17.86
2023-05-19T20:03:34.130Z,17.85
2023-05-19T20:06:02.043Z,17.84
2023-05-19T20:08:29.850Z,17.83
2023-05-19T20:10:58.772Z,17.83
2023-05-19T20:13:26.377Z,17.82
2023-05-19T20:15:54.200Z,17.81
2023-05-19T20:18:21.880Z,17.81
2023-05-19T20:20:49.463Z,17.78
2023-05-19T20:23:17.035Z,17.77
2023-05-19T20:25:58.934Z,17.76
2023-05-19T20:28:35.650Z,17.76
2023-05-19T20:31:03.264Z,17.74
2023-05-19T20:33:31.595Z,17.73
2023-05-19T20:35:59.163Z,17.73
2023-05-19T20:38:26.799Z,17.71
2023-05-19T20:40:54.803Z,17.72
2023-05-19T20:43:22.442Z,17.73
2023-05-19T20:45:52.189Z,17.69
2023-05-19T20:48:19.803Z,17.68
2023-05-19T20:50:47.492Z,17.68
2023-05-19T20:53:15.649Z,17.67
2023-05-19T20:55:45.334Z,17.66
2023-05-19T20:58:13.012Z,17.66
2023-05-19T21:00:40.698Z,17.64
2023-05-19T21:03:09.783Z,17.63
2023-05-19T21:05:37.439Z,17.63
2023-05-19T21:08:05.236Z,17.62
2023-05-19T21:10:32.957Z,17.63
2023-05-19T21:13:00.710Z,17.62
2023-05-19T21:15:28.256Z,17.61
2023-05-19T21:17:55.893Z,17.61
2023-05-19T21:20:25.891Z,17.61
2023-05-19T21:22:53.521Z,17.59
2023-05-19T21:25:21.134Z,17.57
2023-05-19T21:27:50.809Z,17.57
2023-05-19T21:30:18.608Z,17.56
2023-05-19T21:32:46.221Z,17.56
2023-05-19T21:35:13.813Z,17.56
2023-05-19T21:37:42.735Z,17.54
2023-05-19T21:40:10.997Z,17.53
2023-05-19T21:42:38.577Z,17.54
2023-05-19T21:45:07.442Z,17.52
2023-05-19T21:47:35.131Z,17.51
2023-05-19T21:50:02.834Z,17.51
2023-05-19T21:52:31.234Z,17.51
2023-05-19T21:55:00.221Z,17.50
2023-05-19T21:57:28.971Z,17.49
2023-05-19T21:59:56.544Z,17.49
2023-05-19T22:02:24.495Z,17.49
2023-05-19T22:04:52.176Z,17.46
2023-05-19T22:07:26.588Z,17.46
2023-05-19T22:09:54.250Z,17.45
2023-05-19T22:12:24.115Z,17.45
2023-05-19T22:14:51.755Z,17.44
2023-05-19T22:17:19.434Z,17.44
2023-05-19T22:19:47.022Z,17.41
2023-05-19T22:22:14.895Z,17.41
2023-05-19T22:24:42.563Z,17.41
2023-05-19T22:27:10.424Z,17.40
2023-05-19T22:29:39.391Z,17.39
2023-05-19T22:32:11.592Z,17.38
2023-05-19T22:34:39.485Z,17.38
2023-05-19T22:37:07.161Z,17.37
2023-05-19T22:39:34.743Z,17.36
2023-05-19T22:42:02.494Z,17.36
2023-05-19T22:44:30.061Z,17.33
2023-05-19T22:46:58.990Z,17.33
2023-05-19T22:49:27.370Z,17.34
2023-05-19T22:51:55.013Z,17.34
2023-05-19T22:54:22.627Z,17.31
2023-05-19T22:56:50.256Z,17.31
2023-05-19T22:59:18.432Z,17.31
2023-05-19T23:01:47.052Z,17.30
2023-05-19T23:04:16.142Z,17.29
2023-05-19T23:06:44.085Z,17.28
2023-05-19T23:09:11.767Z,17.26
2023-05-19T23:11:39.493Z,17.26
2023-05-19T23:14:07.101Z,17.25
2023-05-19T23:16:34.812Z,17.25
2023-05-19T23:19:02.490Z,17.24
2023-05-19T23:21:32.433Z,17.23
2023-05-19T23:24:00.057Z,17.23
2023-05-19T23:26:27.850Z,17.23
2023-05-19T23:28:55.451Z,17.21
2023-05-19T23:31:23.068Z,17.20
2023-05-19T23:33:50.779Z,17.19
2023-05-19T23:36:19.176Z,17.19
2023-05-19T23:38:48.142Z,17.18
2023-05-19T23:41:15.814Z,17.16
2023-05-19T23:43:43.366Z,17.15
2023-05-19T23:46:11.052Z,17.14
2023-05-19T23:48:39.336Z,17.13
2023-05-19T23:51:07.716Z,17.12
2023-05-19T23:53:35.358Z,17.12
2023-05-19T23:56:04.318Z,17.12
2023-05-19T23:58:31.907Z,17.12
